Time;durP1;ratioP1;P1;durP2;ratioP2;P2;SDS_P1;SDS_P2;PMS_P1;PMS_P2;Temp;Humidity;BMP_temperature;BMP_pressure;BME280_temperature;BME280_humidity;BME280_pressure;Samples;Min_cycle;Max_cycle;Signal;HPM_P1;HPM_P2
2023/11/29 00:00:08;;;;;;;8.83;6.07;;;;;;;3.95;83.10;91802.28;522076;28;3265;-71
2023/11/29 00:00:24;;;;;;;7.70;5.93;;;;;;;3.93;82.99;91802.09;521089;28;2665;-71
2023/11/29 00:00:39;;;;;;;10.50;6.65;;;;;;;3.95;83.21;91805.00;522422;28;3358;-71
2023/11/29 00:00:55;;;;;;;9.87;6.30;;;;;;;3.97;83.26;91801.72;521547;28;3119;-70
2023/11/29 00:01:10;;;;;;;7.93;5.82;;;;;;;4.00;83.57;91812.31;522017;28;2218;-70
2023/11/29 00:01:26;;;;;;;8.20;5.63;;;;;;;4.03;83.08;91811.19;521116;28;3322;-70
2023/11/29 00:01:41;;;;;;;7.18;5.28;;;;;;;4.06;83.48;91810.09;522178;28;2232;-70
2023/11/29 00:01:56;;;;;;;7.17;5.77;;;;;;;4.08;83.19;91806.81;521585;28;3882;-70
2023/11/29 00:02:12;;;;;;;7.47;5.70;;;;;;;4.08;83.39;91812.28;521386;28;3138;-70
2023/11/29 00:02:27;;;;;;;7.43;5.45;;;;;;;4.05;83.01;91814.09;521352;28;2915;-70
2023/11/29 00:02:43;;;;;;;7.37;5.30;;;;;;;4.06;83.65;91821.03;520625;28;2221;-71
2023/11/29 00:02:58;;;;;;;7.07;5.97;;;;;;;4.05;83.04;91810.66;521024;28;2250;-70
2023/11/29 00:03:14;;;;;;;7.05;6.35;;;;;;;4.08;83.68;91823.22;520227;28;1791;-70
2023/11/29 00:03:29;;;;;;;9.17;6.20;;;;;;;4.09;83.22;91814.50;519710;28;2109;-71
2023/11/29 00:03:45;;;;;;;9.90;6.57;;;;;;;4.11;83.26;91824.88;520403;28;3214;-71
2023/11/29 00:04:00;;;;;;;9.13;7.20;;;;;;;4.10;83.08;91826.84;520386;28;2669;-70
2023/11/29 00:04:16;;;;;;;10.80;7.67;;;;;;;4.11;83.11;91824.88;521198;28;3246;-71
2023/11/29 00:04:32;;;;;;;12.02;7.45;;;;;;;4.13;82.99;91822.31;522121;28;3106;-70
2023/11/29 00:04:47;;;;;;;11.25;7.20;;;;;;;4.14;83.49;91823.75;520897;28;1648;-71
2023/11/29 00:05:03;;;;;;;12.20;7.73;;;;;;;4.15;82.78;91820.50;522228;28;1906;-70
2023/11/29 00:05:19;;;;;;;17.65;10.82;;;;;;;4.15;83.12;91823.22;519692;28;3958;-70
2023/11/29 00:05:36;;;;;;;21.30;12.63;;;;;;;4.16;82.90;91826.69;520111;28;3204;-70
2023/11/29 00:05:52;;;;;;;19.58;11.77;;;;;;;4.17;82.83;91825.41;520789;28;1931;-70
2023/11/29 00:06:07;;;;;;;21.40;13.50;;;;;;;4.19;82.95;91828.31;519874;28;3595;-70
2023/11/29 00:06:23;;;;;;;23.03;14.37;;;;;;;4.20;83.17;91832.50;520066;28;3098;-70
2023/11/29 00:06:38;;;;;;;24.73;15.23;;;;;;;4.22;82.92;91824.50;519745;28;1819;-70
2023/11/29 00:06:54;;;;;;;26.73;16.83;;;;;;;4.18;82.94;91822.13;520975;28;3397;-70
2023/11/29 00:07:09;;;;;;;27.13;17.00;;;;;;;4.18;83.16;91830.31;519890;28;1719;-70
2023/11/29 00:07:25;;;;;;;29.53;17.00;;;;;;;4.16;83.19;91834.88;519845;28;2025;-70
2023/11/29 00:07:43;;;;;;;28.33;17.00;;;;;;;4.14;83.05;91837.41;520410;28;3046;-70
2023/11/29 00:07:58;;;;;;;24.65;15.57;;;;;;;4.13;82.82;91831.22;520321;28;3878;-70
2023/11/29 00:08:14;;;;;;;22.05;14.25;;;;;;;4.14;83.26;91843.59;518631;28;3078;-70
2023/11/29 00:08:30;;;;;;;21.97;13.77;;;;;;;4.12;83.17;91835.22;521097;28;3290;-70
2023/11/29 00:08:45;;;;;;;22.25;13.85;;;;;;;4.15;83.14;91839.59;519793;28;3568;-70
2023/11/29 00:09:01;;;;;;;24.00;14.87;;;;;;;4.14;83.49;91840.88;520953;28;1870;-70
2023/11/29 00:09:16;;;;;;;25.30;16.05;;;;;;;4.15;83.58;91841.59;519215;28;3231;-70
2023/11/29 00:09:32;;;;;;;25.93;15.97;;;;;;;4.12;83.13;91834.50;520600;28;3164;-70
2023/11/29 00:09:47;;;;;;;28.85;16.90;;;;;;;4.15;83.43;91841.59;520444;28;3108;-70
2023/11/29 00:10:03;;;;;;;29.70;17.87;;;;;;;4.14;83.45;91838.13;520778;28;3555;-70
2023/11/29 00:10:19;;;;;;;27.63;17.25;;;;;;;4.14;83.32;91840.88;519585;28;3548;-70
2023/11/29 00:10:34;;;;;;;27.35;16.45;;;;;;;4.15;83.29;91839.59;519659;28;2321;-70
2023/11/29 00:10:50;;;;;;;24.38;14.90;;;;;;;4.15;83.26;91842.34;520127;28;3437;-70
2023/11/29 00:11:05;;;;;;;22.90;14.67;;;;;;;4.16;83.38;91846.50;520145;28;2341;-70
2023/11/29 00:11:21;;;;;;;23.77;15.57;;;;;;;4.16;83.41;91838.31;521484;28;3142;-70
2023/11/29 00:11:36;;;;;;;29.00;17.37;;;;;;;4.19;83.17;91844.69;520056;28;3323;-70
2023/11/29 00:11:52;;;;;;;36.70;20.53;;;;;;;4.20;83.70;91846.16;522654;28;2084;-71
2023/11/29 00:12:07;;;;;;;41.42;23.92;;;;;;;4.17;83.65;91845.25;520877;28;3676;-70
2023/11/29 00:12:23;;;;;;;39.50;23.47;;;;;;;4.13;83.15;91825.03;517950;28;2298;-70
2023/11/29 00:12:38;;;;;;;33.55;20.60;;;;;;;4.21;83.29;91837.41;518541;28;2677;-70
2023/11/29 00:12:54;;;;;;;31.47;19.60;;;;;;;4.22;83.54;91843.63;518048;28;2325;-70
2023/11/29 00:13:09;;;;;;;31.33;19.60;;;;;;;4.23;83.41;91842.31;517591;28;3032;-70
2023/11/29 00:13:25;;;;;;;32.73;20.73;;;;;;;4.23;83.43;91845.06;520203;28;3419;-70
2023/11/29 00:13:40;;;;;;;47.60;28.52;;;;;;;4.24;83.36;91841.06;519504;28;3257;-70
2023/11/29 00:13:55;;;;;;;50.40;31.77;;;;;;;4.24;83.19;91846.53;519345;28;3272;-70
2023/11/29 00:14:11;;;;;;;42.45;28.25;;;;;;;4.18;83.14;91833.03;517755;28;3218;-70
2023/11/29 00:14:27;;;;;;;43.83;27.33;;;;;;;4.22;82.89;91844.31;520236;28;2300;-70
2023/11/29 00:14:42;;;;;;;40.08;26.02;;;;;;;4.22;83.10;91844.31;519445;28;2058;-70
2023/11/29 00:14:58;;;;;;;38.57;24.73;;;;;;;4.23;83.38;91847.78;520527;28;1811;-70
2023/11/29 00:15:13;;;;;;;35.92;22.15;;;;;;;4.24;83.23;91846.53;519802;28;3482;-70
2023/11/29 00:15:28;;;;;;;31.93;19.13;;;;;;;4.26;83.37;91843.97;520663;28;3218;-70
2023/11/29 00:15:44;;;;;;;35.08;21.42;;;;;;;4.27;83.53;91848.88;521633;28;3117;-70
2023/11/29 00:15:59;;;;;;;35.17;22.97;;;;;;;4.27;83.42;91839.97;521329;28;3196;-70
2023/11/29 00:16:15;;;;;;;34.47;21.97;;;;;;;4.26;83.20;91854.91;519830;28;2419;-70
2023/11/29 00:16:31;;;;;;;34.83;22.65;;;;;;;4.22;83.21;91854.53;520076;28;1956;-70
2023/11/29 00:16:47;;;;;;;29.77;20.73;;;;;;;4.21;83.66;91856.53;519927;28;2080;-70
2023/11/29 00:17:04;;;;;;;29.27;19.80;;;;;;;4.21;83.77;91856.53;521849;28;1920;-70
2023/11/29 00:17:19;;;;;;;32.50;22.25;;;;;;;4.21;83.43;91859.28;519887;28;2163;-70
2023/11/29 00:17:34;;;;;;;34.73;23.07;;;;;;;4.20;83.71;91855.06;519968;28;2185;-70
2023/11/29 00:17:50;;;;;;;36.58;23.15;;;;;;;4.23;83.71;91855.97;521724;28;3511;-70
2023/11/29 00:18:06;;;;;;;33.03;21.77;;;;;;;4.24;83.55;91860.19;520488;28;3123;-70
2023/11/29 00:18:21;;;;;;;32.25;22.17;;;;;;;4.24;83.92;91858.19;520052;28;3360;-70
2023/11/29 00:18:37;;;;;;;38.20;24.13;;;;;;;4.26;83.79;91861.09;519739;28;3089;-70
2023/11/29 00:18:53;;;;;;;39.50;24.08;;;;;;;4.26;83.66;91855.63;521450;28;2520;-70
2023/11/29 00:19:08;;;;;;;35.35;23.27;;;;;;;4.29;83.98;91868.19;520781;28;2353;-70
2023/11/29 00:19:24;;;;;;;35.83;23.73;;;;;;;4.22;83.93;91860.72;520004;28;3259;-70
2023/11/29 00:19:45;;;;;;;37.53;24.23;;;;;;;4.20;83.62;91859.81;519823;28;1944;-70
2023/11/29 00:20:01;;;;;;;29.98;20.20;;;;;;;4.14;84.17;91862.72;520486;28;2068;-70
2023/11/29 00:20:16;;;;;;;28.38;19.23;;;;;;;4.11;83.95;91874.75;520154;28;2798;-70
2023/11/29 00:20:31;;;;;;;33.20;20.97;;;;;;;4.06;84.47;91870.19;519792;28;3473;-71
2023/11/29 00:20:47;;;;;;;35.38;21.55;;;;;;;4.05;84.48;91870.75;521029;28;3222;-70
2023/11/29 00:21:02;;;;;;;34.03;21.50;;;;;;;4.05;84.31;91873.47;521950;28;3503;-70
2023/11/29 00:21:18;;;;;;;33.08;20.95;;;;;;;3.88;84.52;91848.69;521886;28;1881;-70
2023/11/29 00:21:40;;;;;;;33.00;21.10;;;;;;;4.11;84.91;91879.47;521540;28;2226;-70
2023/11/29 00:21:55;;;;;;;33.35;21.70;;;;;;;4.11;84.80;91882.22;522103;28;3234;-70
2023/11/29 00:22:11;;;;;;;33.92;22.13;;;;;;;4.12;84.37;91878.94;520560;28;3388;-70
2023/11/29 00:22:27;;;;;;;33.23;21.30;;;;;;;4.15;84.21;91879.84;519564;28;3358;-70
2023/11/29 00:22:42;;;;;;;34.75;20.52;;;;;;;4.18;84.75;91882.19;520222;28;3418;-70
2023/11/29 00:22:58;;;;;;;32.97;20.17;;;;;;;4.19;84.65;91880.94;519488;28;2521;-70
2023/11/29 00:23:13;;;;;;;30.87;20.97;;;;;;;4.22;84.17;91871.63;519973;28;2415;-70
2023/11/29 00:23:31;;;;;;;31.83;22.33;;;;;;;4.24;84.64;91882.03;521913;28;3134;-70
2023/11/29 00:23:46;;;;;;;35.58;23.88;;;;;;;4.26;84.46;91880.22;521033;28;3233;-70
2023/11/29 00:24:02;;;;;;;35.17;23.33;;;;;;;4.28;84.08;91880.41;519402;28;2084;-70
2023/11/29 00:24:17;;;;;;;29.08;19.55;;;;;;;4.28;83.96;91877.69;519924;28;2723;-70
2023/11/29 00:24:33;;;;;;;32.33;20.97;;;;;;;4.28;83.76;91879.66;519648;28;1858;-70
2023/11/29 00:24:48;;;;;;;35.10;23.38;;;;;;;4.29;83.94;91875.66;522322;28;3360;-70
2023/11/29 00:25:04;;;;;;;29.90;20.87;;;;;;;4.30;83.77;91882.59;519366;28;2090;-70
2023/11/29 00:25:20;;;;;;;34.45;22.33;;;;;;;4.31;83.76;91879.28;520033;28;3259;-70
2023/11/29 00:25:35;;;;;;;39.65;24.92;;;;;;;4.32;83.61;91875.31;520340;28;2129;-71
2023/11/29 00:25:50;;;;;;;38.13;24.43;;;;;;;4.28;83.56;91872.22;522233;28;3615;-70
2023/11/29 00:26:06;;;;;;;36.60;22.70;;;;;;;4.26;83.51;91874.03;521391;28;2041;-70
2023/11/29 00:26:23;;;;;;;35.37;21.30;;;;;;;4.23;83.72;91875.09;519999;28;3234;-70
2023/11/29 00:26:39;;;;;;;32.40;20.40;;;;;;;4.21;83.76;91872.94;519461;28;3601;-70
2023/11/29 00:26:54;;;;;;;30.30;20.67;;;;;;;4.20;83.78;91878.94;519714;28;3398;-70
2023/11/29 00:27:10;;;;;;;30.23;19.70;;;;;;;4.19;83.71;91882.94;519927;28;2029;-70
2023/11/29 00:27:25;;;;;;;31.77;20.47;;;;;;;4.20;83.57;91874.19;519481;28;3280;-71
2023/11/29 00:27:41;;;;;;;35.00;23.17;;;;;;;4.22;84.15;91876.41;520225;28;2358;-71
2023/11/29 00:27:56;;;;;;;37.10;23.30;;;;;;;4.23;83.79;91875.09;520200;28;2567;-70
2023/11/29 00:28:12;;;;;;;34.80;21.90;;;;;;;4.03;84.04;91843.97;519760;28;2034;-70
2023/11/29 00:28:27;;;;;;;35.08;21.73;;;;;;;4.01;84.21;91884.75;519855;28;1994;-70
2023/11/29 00:28:42;;;;;;;35.57;21.23;;;;;;;3.95;84.04;91880.72;520386;28;3283;-71
2023/11/29 00:28:58;;;;;;;33.45;20.50;;;;;;;3.86;84.76;91871.06;521825;28;3259;-70
2023/11/29 00:29:14;;;;;;;30.03;18.73;;;;;;;3.85;84.77;91880.53;521624;28;2374;-70
2023/11/29 00:29:29;;;;;;;27.35;16.70;;;;;;;3.82;85.12;91878.88;521216;28;3381;-70
2023/11/29 00:29:45;;;;;;;27.10;17.20;;;;;;;3.81;85.33;91880.88;520944;28;1897;-70
2023/11/29 00:30:01;;;;;;;30.63;19.33;;;;;;;3.83;85.49;91885.81;519744;28;3226;-70
2023/11/29 00:30:17;;;;;;;36.30;21.90;;;;;;;3.87;85.70;91878.00;519552;28;3598;-70
2023/11/29 00:30:32;;;;;;;32.63;19.37;;;;;;;3.89;85.78;91872.72;520808;28;3299;-70
2023/11/29 00:30:48;;;;;;;23.50;15.53;;;;;;;3.92;86.02;91885.25;521812;28;3280;-70
2023/11/29 00:31:03;;;;;;;20.60;15.18;;;;;;;3.93;86.00;91886.72;522017;28;3320;-70
2023/11/29 00:31:19;;;;;;;21.25;14.90;;;;;;;3.93;86.27;91889.47;520798;28;2617;-70
2023/11/29 00:31:34;;;;;;;24.77;15.50;;;;;;;3.91;86.36;91897.47;522615;28;3135;-70
2023/11/29 00:31:50;;;;;;;27.00;16.73;;;;;;;3.88;86.28;91886.91;521741;28;3238;-70
2023/11/29 00:32:05;;;;;;;27.13;16.53;;;;;;;3.84;86.27;91890.00;522508;28;2132;-70
2023/11/29 00:32:21;;;;;;;26.58;17.25;;;;;;;3.85;85.97;91891.47;521282;28;2092;-70
2023/11/29 00:32:37;;;;;;;26.27;18.52;;;;;;;3.81;86.37;91886.34;521551;28;3232;-70
2023/11/29 00:32:52;;;;;;;26.30;18.03;;;;;;;3.74;86.17;91887.06;519809;28;2336;-70
2023/11/29 00:33:08;;;;;;;25.23;17.30;;;;;;;3.58;86.52;91871.19;520440;28;3161;-70
2023/11/29 00:33:23;;;;;;;23.35;15.65;;;;;;;3.75;86.54;91891.25;519326;28;3689;-70
2023/11/29 00:33:39;;;;;;;24.13;15.15;;;;;;;3.76;86.70;91891.97;522750;28;3395;-70
2023/11/29 00:33:55;;;;;;;25.40;14.93;;;;;;;3.47;87.05;91855.88;522076;28;3907;-70
2023/11/29 00:34:10;;;;;;;24.53;14.73;;;;;;;3.62;87.42;91890.66;521889;28;3231;-70
2023/11/29 00:34:26;;;;;;;25.75;15.10;;;;;;;3.63;87.25;91892.13;521962;28;3482;-70
2023/11/29 00:34:41;;;;;;;23.37;14.50;;;;;;;3.66;87.43;91896.50;521046;28;3479;-70
2023/11/29 00:34:57;;;;;;;19.23;13.35;;;;;;;3.70;87.24;91894.16;519296;28;3472;-70
2023/11/29 00:35:12;;;;;;;17.37;12.20;;;;;;;3.75;87.91;91895.97;519781;28;3551;-70
2023/11/29 00:35:28;;;;;;;18.97;12.47;;;;;;;3.78;87.70;91883.97;519338;28;3110;-70
2023/11/29 00:35:43;;;;;;;19.33;12.70;;;;;;;3.83;87.92;91888.53;522748;28;3247;-70
2023/11/29 00:35:59;;;;;;;18.57;12.87;;;;;;;3.86;87.21;91892.91;518423;28;3442;-70
2023/11/29 00:36:14;;;;;;;21.23;13.30;;;;;;;3.89;87.71;91885.63;520096;28;2190;-70
2023/11/29 00:36:30;;;;;;;21.03;13.13;;;;;;;3.91;87.62;91891.28;520166;28;3197;-70
2023/11/29 00:36:46;;;;;;;20.92;13.73;;;;;;;3.78;87.60;91886.72;521766;28;2301;-70
2023/11/29 00:37:04;;;;;;;22.17;14.30;;;;;;;3.66;88.30;91882.88;519684;28;3513;-70
2023/11/29 00:37:19;;;;;;;18.27;11.93;;;;;;;3.62;88.39;91893.38;518174;28;2130;-70
2023/11/29 00:37:35;;;;;;;12.48;8.40;;;;;;;3.66;89.27;91899.25;519001;28;3553;-70
2023/11/29 00:37:51;;;;;;;9.18;6.43;;;;;;;3.70;89.78;91900.31;520428;28;2444;-70
2023/11/29 00:38:06;;;;;;;7.00;5.40;;;;;;;3.74;89.81;91900.00;519180;28;2247;-70
2023/11/29 00:38:23;;;;;;;7.35;5.72;;;;;;;3.78;90.50;91905.81;519420;28;3174;-70
2023/11/29 00:38:38;;;;;;;11.23;7.32;;;;;;;3.81;90.58;91899.28;518091;28;2249;-70
2023/11/29 00:38:54;;;;;;;12.00;7.40;;;;;;;3.83;90.89;91897.44;518102;28;3249;-70
2023/11/29 00:39:09;;;;;;;9.17;6.97;;;;;;;3.86;90.64;91906.56;519167;28;2336;-70
2023/11/29 00:39:25;;;;;;;10.57;7.95;;;;;;;3.91;90.39;91896.75;519212;28;3156;-70
2023/11/29 00:39:41;;;;;;;12.60;8.43;;;;;;;3.94;90.66;91901.13;519967;28;3320;-70
2023/11/29 00:39:56;;;;;;;13.57;9.43;;;;;;;3.96;90.78;91902.03;520157;28;3154;-70
2023/11/29 00:40:12;;;;;;;15.40;10.20;;;;;;;3.98;90.33;91896.03;521452;28;3170;-70
2023/11/29 00:40:27;;;;;;;12.10;7.47;;;;;;;4.01;90.96;91905.84;521079;28;3080;-70
2023/11/29 00:40:43;;;;;;;8.50;6.13;;;;;;;4.02;90.68;91908.06;522420;28;2380;-70
2023/11/29 00:40:58;;;;;;;9.77;7.43;;;;;;;4.05;90.50;91904.22;522052;28;2947;-70
2023/11/29 00:41:14;;;;;;;11.03;8.33;;;;;;;4.06;90.58;91904.94;519879;28;3505;-70
2023/11/29 00:41:29;;;;;;;12.23;8.93;;;;;;;4.10;90.20;91908.06;521704;28;1871;-70
2023/11/29 00:41:44;;;;;;;13.33;9.70;;;;;;;4.15;90.33;91904.44;521655;28;2396;-70
2023/11/29 00:42:00;;;;;;;14.88;10.25;;;;;;;4.17;90.45;91915.53;520085;28;3643;-70
2023/11/29 00:42:15;;;;;;;15.27;10.13;;;;;;;4.19;90.34;91907.53;519025;28;2130;-70
2023/11/29 00:42:31;;;;;;;13.45;10.07;;;;;;;4.19;90.33;91908.25;519583;28;2093;-70
2023/11/29 00:42:46;;;;;;;12.07;10.00;;;;;;;4.15;89.54;91907.91;520027;28;3289;-70
2023/11/29 00:43:02;;;;;;;13.35;10.60;;;;;;;4.08;89.57;91903.13;519802;28;2093;-70
2023/11/29 00:43:18;;;;;;;16.97;11.50;;;;;;;4.05;89.48;91909.69;519531;28;2585;-70
2023/11/29 00:43:35;;;;;;;18.48;12.48;;;;;;;4.05;89.78;91911.69;519640;28;2806;-70
2023/11/29 00:43:51;;;;;;;18.33;13.20;;;;;;;4.02;89.33;91908.06;518385;28;2249;-70
2023/11/29 00:44:06;;;;;;;14.97;11.10;;;;;;;4.01;89.66;91906.59;520080;28;3068;-70
2023/11/29 00:44:22;;;;;;;12.52;9.60;;;;;;;4.03;89.34;91914.97;520034;28;3474;-70
2023/11/29 00:44:37;;;;;;;14.97;10.67;;;;;;;4.07;89.74;91914.63;519440;28;1902;-71
2023/11/29 00:44:53;;;;;;;16.10;10.52;;;;;;;4.07;89.74;91920.78;520469;28;2544;-71
2023/11/29 00:45:09;;;;;;;15.10;10.13;;;;;;;4.11;89.94;91917.72;518500;28;3373;-70
2023/11/29 00:45:24;;;;;;;13.70;10.35;;;;;;;4.12;89.70;91925.34;519910;28;3446;-70
2023/11/29 00:45:40;;;;;;;14.50;10.23;;;;;;;4.15;89.68;91924.28;520009;28;3394;-70
2023/11/29 00:45:55;;;;;;;16.30;10.67;;;;;;;4.18;89.54;91914.28;520380;28;2067;-70
2023/11/29 00:46:10;;;;;;;16.73;11.37;;;;;;;4.20;89.26;91919.91;521246;28;2204;-70
2023/11/29 00:46:26;;;;;;;16.40;10.98;;;;;;;4.22;89.40;91920.09;521577;28;3417;-70
2023/11/29 00:46:41;;;;;;;15.03;10.60;;;;;;;4.22;88.97;91920.09;520097;28;2724;-70
2023/11/29 00:46:57;;;;;;;13.05;10.15;;;;;;;4.23;88.94;91921.53;520961;28;2288;-70
2023/11/29 00:47:12;;;;;;;13.23;10.20;;;;;;;4.22;88.89;91918.06;519511;28;3432;-70
2023/11/29 00:47:28;;;;;;;15.38;11.27;;;;;;;4.26;88.84;91918.47;520049;28;3097;-70
2023/11/29 00:47:43;;;;;;;14.87;10.60;;;;;;;4.27;89.03;91919.19;520270;28;3178;-70
2023/11/29 00:47:59;;;;;;;12.02;8.90;;;;;;;4.29;88.79;91924.81;519770;28;3339;-70
2023/11/29 00:48:14;;;;;;;11.13;7.93;;;;;;;4.31;89.03;91920.28;521934;28;2116;-70
2023/11/29 00:48:30;;;;;;;11.05;7.70;;;;;;;4.32;88.77;91919.00;521098;28;2166;-70
2023/11/29 00:48:46;;;;;;;12.65;8.43;;;;;;;4.29;88.76;91925.56;521974;28;3275;-70
2023/11/29 00:49:02;;;;;;;11.88;8.50;;;;;;;4.29;88.60;91931.03;521731;28;2653;-70
2023/11/29 00:49:18;;;;;;;11.20;8.70;;;;;;;4.31;88.54;91925.75;517552;28;3138;-70
2023/11/29 00:49:33;;;;;;;11.00;8.07;;;;;;;4.32;88.53;91921.75;517275;28;3379;-70
2023/11/29 00:49:49;;;;;;;9.80;7.55;;;;;;;4.31;88.30;91920.28;517937;28;2029;-70
2023/11/29 00:50:05;;;;;;;9.53;7.23;;;;;;;4.32;88.28;91921.00;517694;28;3301;-70
2023/11/29 00:50:20;;;;;;;9.93;6.55;;;;;;;4.32;88.53;91915.53;519395;28;3877;-70
2023/11/29 00:50:36;;;;;;;9.70;6.85;;;;;;;4.30;88.49;91926.28;518450;28;3651;-70
2023/11/29 00:50:52;;;;;;;9.37;7.53;;;;;;;4.29;88.13;91917.38;519280;28;3388;-70
2023/11/29 00:51:07;;;;;;;8.88;7.03;;;;;;;4.11;88.57;91902.06;518774;28;3117;-70
2023/11/29 00:51:22;;;;;;;6.93;5.73;;;;;;;4.31;88.34;91914.81;520064;28;3267;-70
2023/11/29 00:51:38;;;;;;;7.73;5.73;;;;;;;4.35;88.64;91917.19;519413;28;3382;-70
2023/11/29 00:51:53;;;;;;;9.40;6.53;;;;;;;4.34;88.57;91919.19;520735;28;2414;-70
2023/11/29 00:52:09;;;;;;;8.35;6.93;;;;;;;4.31;88.58;91916.84;519553;28;2260;-70
2023/11/29 00:52:24;;;;;;;7.73;6.80;;;;;;;4.31;88.30;91920.28;520140;28;3285;-70
2023/11/29 00:52:40;;;;;;;7.40;6.03;;;;;;;4.32;88.56;91924.47;520800;28;3498;-70
2023/11/29 00:52:56;;;;;;;5.97;4.93;;;;;;;4.35;88.95;91923.38;522406;28;4072;-70
2023/11/29 00:53:11;;;;;;;5.93;4.85;;;;;;;4.37;88.59;91920.84;520930;28;3459;-70
2023/11/29 00:53:27;;;;;;;7.57;5.00;;;;;;;4.40;88.76;91919.75;521387;28;3324;-70
2023/11/29 00:53:43;;;;;;;7.90;4.60;;;;;;;4.41;88.32;91915.00;519525;28;3794;-70
2023/11/29 00:53:59;;;;;;;6.72;4.75;;;;;;;4.44;88.84;91917.38;520660;28;3074;-70
2023/11/29 00:54:14;;;;;;;6.33;5.00;;;;;;;4.47;88.83;91924.50;518737;28;2990;-70
2023/11/29 00:54:30;;;;;;;5.43;4.75;;;;;;;4.49;88.53;91915.72;522029;28;2339;-70
2023/11/29 00:54:45;;;;;;;5.30;4.80;;;;;;;4.51;88.44;91919.38;522297;28;4045;-70
2023/11/29 00:55:01;;;;;;;5.70;5.00;;;;;;;4.53;88.63;91910.63;521645;28;2305;-70
2023/11/29 00:55:16;;;;;;;6.40;5.00;;;;;;;4.53;88.22;91911.38;520228;28;2744;-70
2023/11/29 00:55:32;;;;;;;6.90;4.93;;;;;;;4.52;88.69;91920.13;519396;28;3493;-70
2023/11/29 00:55:47;;;;;;;7.13;4.93;;;;;;;4.53;88.68;91910.63;522121;28;3127;-70
2023/11/29 00:56:03;;;;;;;6.57;4.57;;;;;;;4.53;88.60;91908.63;521614;28;2014;-70
2023/11/29 00:56:18;;;;;;;6.37;4.63;;;;;;;4.53;88.51;91916.81;519937;28;2021;-70
2023/11/29 00:56:34;;;;;;;5.60;4.55;;;;;;;4.57;88.73;91917.19;519237;28;3645;-70
2023/11/29 00:56:49;;;;;;;6.00;4.47;;;;;;;4.61;88.48;91916.84;521733;28;2264;-70
2023/11/29 00:57:05;;;;;;;6.18;4.65;;;;;;;4.63;88.65;91913.56;520044;28;3149;-70
2023/11/29 00:57:20;;;;;;;5.40;4.40;;;;;;;4.64;88.69;91915.72;520493;28;3572;-70
2023/11/29 00:57:35;;;;;;;6.85;4.63;;;;;;;4.66;88.67;91915.91;519859;28;3062;-70
2023/11/29 00:57:51;;;;;;;7.97;5.37;;;;;;;4.68;88.72;91907.88;522748;28;3518;-70
2023/11/29 00:58:06;;;;;;;7.17;5.60;;;;;;;4.70;88.56;91915.56;521386;28;2340;-70
2023/11/29 00:58:22;;;;;;;4.97;4.22;;;;;;;4.71;88.41;91917.75;521832;28;2250;-70
2023/11/29 00:58:37;;;;;;;4.57;3.87;;;;;;;4.72;88.75;91915.75;521520;28;3117;-70
2023/11/29 00:58:53;;;;;;;6.40;4.82;;;;;;;4.71;88.43;91909.53;522364;28;2194;-70
2023/11/29 00:59:08;;;;;;;5.70;3.80;;;;;;;4.73;88.44;91917.91;520080;28;3477;-70
2023/11/29 00:59:24;;;;;;;3.88;2.72;;;;;;;4.75;88.40;91914.63;520121;28;1616;-70
2023/11/29 00:59:39;;;;;;;3.30;2.80;;;;;;;4.77;89.09;91917.53;519600;28;3509;-70
2023/11/29 00:59:55;;;;;;;3.10;2.80;;;;;;;4.77;88.87;91918.28;519966;28;3246;-70
2023/11/29 01:00:11;;;;;;;3.27;2.87;;;;;;;4.78;89.00;91919.75;519236;28;3371;-70
2023/11/29 01:00:28;;;;;;;4.20;3.20;;;;;;;4.81;89.21;91917.94;519071;28;3425;-70
2023/11/29 01:00:44;;;;;;;4.40;3.10;;;;;;;4.80;88.96;91928.13;519003;28;3326;-70
2023/11/29 01:00:59;;;;;;;3.80;3.03;;;;;;;4.82;89.41;91927.56;519887;28;2147;-70
2023/11/29 01:01:15;;;;;;;3.55;3.20;;;;;;;4.81;89.33;91923.38;519175;28;2629;-71
2023/11/29 01:01:31;;;;;;;3.63;2.95;;;;;;;4.57;89.18;91892.59;516968;28;3339;-70
2023/11/29 01:01:47;;;;;;;3.65;2.83;;;;;;;4.81;89.32;91926.13;517524;28;3217;-70
2023/11/29 01:02:02;;;;;;;3.17;2.77;;;;;;;4.83;89.07;91926.31;517774;28;3586;-70
2023/11/29 01:02:18;;;;;;;2.92;2.63;;;;;;;4.85;89.30;91932.66;516970;28;3263;-70
2023/11/29 01:02:33;;;;;;;3.47;2.77;;;;;;;4.87;89.18;91930.13;517909;28;2350;-70
2023/11/29 01:02:49;;;;;;;4.20;2.72;;;;;;;4.89;89.16;91938.50;517126;28;3406;-71
2023/11/29 01:03:04;;;;;;;4.20;2.90;;;;;;;4.90;89.58;91931.75;518232;28;3145;-70
2023/11/29 01:03:20;;;;;;;4.15;3.08;;;;;;;4.93;89.36;91935.41;517990;28;3928;-70
2023/11/29 01:03:35;;;;;;;3.70;2.73;;;;;;;4.94;89.47;91937.56;520305;28;2279;-70
2023/11/29 01:03:51;;;;;;;2.90;2.60;;;;;;;4.96;89.27;91939.78;520120;28;3633;-70
2023/11/29 01:04:06;;;;;;;3.00;2.77;;;;;;;4.97;89.01;91935.75;521154;28;3254;-70
2023/11/29 01:04:21;;;;;;;3.20;2.90;;;;;;;4.98;89.33;91939.97;521611;28;3443;-70
2023/11/29 01:04:37;;;;;;;3.63;2.83;;;;;;;4.79;88.88;91912.97;521407;28;3249;-70
2023/11/29 01:04:52;;;;;;;3.63;2.83;;;;;;;4.97;89.12;91944.69;520467;28;2709;-70
2023/11/29 01:05:08;;;;;;;3.80;3.00;;;;;;;4.97;89.00;91938.50;520221;28;3769;-70
2023/11/29 01:05:24;;;;;;;4.18;3.15;;;;;;;4.99;88.79;91939.41;520202;28;2102;-70
2023/11/29 01:05:39;;;;;;;4.27;3.20;;;;;;;5.00;89.03;91943.56;519978;28;2373;-70
2023/11/29 01:05:55;;;;;;;4.63;3.40;;;;;;;5.01;88.92;91936.84;520734;28;2225;-70
2023/11/29 01:06:10;;;;;;;5.60;3.57;;;;;;;5.02;88.76;91943.06;520024;28;3172;-70
2023/11/29 01:06:26;;;;;;;6.20;4.13;;;;;;;5.03;88.92;91937.03;520524;28;1696;-70
2023/11/29 01:06:41;;;;;;;6.53;4.83;;;;;;;4.95;88.75;91938.31;519185;28;3283;-71
2023/11/29 01:06:57;;;;;;;7.15;4.72;;;;;;;4.93;88.80;91938.88;521056;28;3246;-71
2023/11/29 01:07:12;;;;;;;5.50;3.50;;;;;;;4.90;88.80;91937.22;519506;28;3599;-70
2023/11/29 01:07:28;;;;;;;3.17;2.47;;;;;;;4.91;89.05;91937.94;520642;28;2805;-70
2023/11/29 01:07:43;;;;;;;2.80;2.40;;;;;;;4.92;89.22;91942.88;516527;28;3979;-70
2023/11/29 01:07:58;;;;;;;2.97;2.40;;;;;;;4.95;89.73;91943.78;520678;28;2215;-70
2023/11/29 01:08:14;;;;;;;2.53;2.30;;;;;;;4.96;89.40;91942.50;519019;28;3115;-70
2023/11/29 01:08:29;;;;;;;2.80;2.50;;;;;;;4.98;89.52;91937.22;520439;28;3362;-70
2023/11/29 01:08:45;;;;;;;3.50;2.70;;;;;;;5.00;89.68;91942.88;518970;28;3191;-70
2023/11/29 01:09:03;;;;;;;3.97;2.67;;;;;;;4.99;89.91;91936.66;520543;28;3428;-70
2023/11/29 01:09:19;;;;;;;3.50;2.70;;;;;;;5.05;89.79;91941.94;517492;28;3336;-70
2023/11/29 01:09:35;;;;;;;3.92;2.83;;;;;;;5.07;89.45;91947.59;519792;28;2061;-70
2023/11/29 01:09:50;;;;;;;4.67;3.20;;;;;;;5.08;89.54;91944.31;519979;28;1937;-70
2023/11/29 01:10:06;;;;;;;4.32;3.10;;;;;;;5.11;89.84;91943.19;520683;28;2138;-70
2023/11/29 01:10:22;;;;;;;4.05;2.63;;;;;;;5.13;89.77;91946.13;522027;28;2030;-70
2023/11/29 01:10:39;;;;;;;3.45;2.72;;;;;;;5.16;89.48;91941.56;522094;28;3088;-70
2023/11/29 01:10:54;;;;;;;3.72;3.00;;;;;;;5.17;89.46;91949.22;522726;28;1629;-70
2023/11/29 01:11:10;;;;;;;4.22;3.13;;;;;;;5.19;89.45;91946.66;519092;28;3918;-70
2023/11/29 01:11:25;;;;;;;4.10;3.10;;;;;;;5.22;89.46;91944.81;522662;28;1885;-70
2023/11/29 01:11:41;;;;;;;4.78;3.20;;;;;;;5.22;89.21;91940.09;521670;28;3472;-70
2023/11/29 01:11:56;;;;;;;5.27;3.53;;;;;;;5.24;89.24;91948.47;522004;28;1838;-70
2023/11/29 01:12:13;;;;;;;4.05;3.20;;;;;;;5.26;88.87;91950.66;519882;28;2646;-70
2023/11/29 01:12:28;;;;;;;3.65;2.97;;;;;;;5.27;88.83;91947.38;520429;28;2979;-70
2023/11/29 01:12:44;;;;;;;4.05;3.20;;;;;;;5.29;88.89;91946.81;517365;28;3488;-70
2023/11/29 01:13:00;;;;;;;4.07;3.30;;;;;;;5.28;88.82;91940.59;519204;28;3142;-70
2023/11/29 01:13:15;;;;;;;4.50;3.37;;;;;;;5.30;88.88;91945.56;519228;28;3271;-70
2023/11/29 01:13:31;;;;;;;4.00;3.00;;;;;;;5.30;88.63;91945.56;519935;28;2125;-70
2023/11/29 01:13:46;;;;;;;4.27;3.20;;;;;;;5.31;88.55;91944.25;520611;28;3895;-70
2023/11/29 01:14:01;;;;;;;5.63;3.60;;;;;;;5.32;88.35;91943.00;519513;28;2228;-71
2023/11/29 01:14:17;;;;;;;5.10;3.30;;;;;;;5.32;88.15;91943.00;520442;28;3710;-70
2023/11/29 01:14:32;;;;;;;4.60;3.50;;;;;;;5.30;88.41;91948.28;519603;28;3377;-70
2023/11/29 01:14:48;;;;;;;4.65;3.72;;;;;;;5.29;88.27;91947.56;522792;28;3153;-70
2023/11/29 01:15:04;;;;;;;5.07;3.13;;;;;;;5.28;88.25;91940.59;520621;28;3487;-70
2023/11/29 01:15:19;;;;;;;4.55;2.72;;;;;;;5.30;88.20;91940.81;522263;28;2228;-70